Time;durP1;ratioP1;P1;durP2;ratioP2;P2;SDS_P1;SDS_P2;PMS_P1;PMS_P2;Temp;Humidity;BMP_temperature;BMP_pressure;BME280_temperature;BME280_humidity;BME280_pressure;Samples;Min_cycle;Max_cycle;Signal;HPM_P1;HPM_P2
2023/06/07 00:02:07;;;;;;;21.88;8.88;;;;;;;13.16;100.00;164005.47;5032292;28;20110;-65
2023/06/07 00:04:35;;;;;;;23.42;7.93;;;;;;;13.10;100.00;163989.25;5030227;28;20042;-65
2023/06/07 00:07:03;;;;;;;22.85;10.10;;;;;;;13.04;100.00;163973.03;5032112;28;20025;-64
2023/06/07 00:09:30;;;;;;;;;;;;;;;13.01;100.00;163967.63;5031224;28;20064;-65
2023/06/07 00:11:55;;;;;;;19.58;9.77;;;;;;;12.97;100.00;163956.81;5031648;28;19920;-65
2023/06/07 00:14:21;;;;;;;20.73;10.40;;;;;;;12.95;100.00;163951.41;5030637;28;20037;-64
2023/06/07 00:16:47;;;;;;;15.23;10.48;;;;;;;12.88;100.00;163932.47;5031916;28;20491;-64
2023/06/07 00:19:12;;;;;;;12.80;8.60;;;;;;;12.75;100.00;163897.34;5030017;28;20060;-66
2023/06/07 00:21:38;;;;;;;14.40;8.30;;;;;;;12.86;100.00;163927.06;5031801;28;20021;-65
2023/06/07 00:24:04;;;;;;;10.60;7.47;;;;;;;12.81;100.00;163914.88;5030572;28;20072;-65
2023/06/07 00:26:29;;;;;;;18.05;9.10;;;;;;;12.72;100.00;163889.22;5031652;28;20543;-65
2023/06/07 00:28:54;;;;;;;13.38;10.38;;;;;;;12.68;100.00;163879.75;5030254;28;20118;-65
2023/06/07 00:31:20;;;;;;;13.48;8.35;;;;;;;12.69;100.00;163883.84;5031529;28;20076;-65
2023/06/07 00:33:45;;;;;;;12.27;8.55;;;;;;;12.64;100.00;163870.28;5029128;28;20045;-65
2023/06/07 00:36:11;;;;;;;15.07;7.45;;;;;;;12.63;100.00;163866.25;5032085;28;20018;-65
2023/06/07 00:38:36;;;;;;;19.40;10.90;;;;;;;12.57;100.00;163851.38;5029999;28;20041;-65
2023/06/07 00:41:01;;;;;;;13.45;8.05;;;;;;;12.56;100.00;163848.66;5031427;28;20533;-65
2023/06/07 00:43:27;;;;;;;19.25;8.85;;;;;;;12.56;100.00;163848.66;5030151;28;20026;-64
2023/06/07 00:45:52;;;;;;;19.10;10.27;;;;;;;12.58;100.00;163854.09;5031278;28;20095;-64
2023/06/07 00:48:18;;;;;;;15.00;8.07;;;;;;;12.57;100.00;163851.38;5029809;28;20022;-64
2023/06/07 00:50:45;;;;;;;14.93;8.65;;;;;;;12.60;100.00;163859.50;5030441;28;20029;-64
2023/06/07 00:53:10;;;;;;;18.23;9.60;;;;;;;12.60;100.00;163858.13;5029940;28;20067;-63
2023/06/07 00:55:37;;;;;;;23.15;10.20;;;;;;;12.55;100.00;163845.97;5030779;28;20025;-64
2023/06/07 00:58:02;;;;;;;18.33;7.55;;;;;;;12.57;100.00;163851.38;5031435;28;20113;-65
2023/06/07 01:00:29;;;;;;;21.25;9.60;;;;;;;12.53;100.00;163841.91;5029810;28;20045;-63
2023/06/07 01:02:56;;;;;;;26.77;11.30;;;;;;;12.51;100.00;163835.16;5030473;28;20077;-65
2023/06/07 01:05:22;;;;;;;19.15;10.02;;;;;;;12.44;100.00;163817.59;5029644;28;20193;-64
2023/06/07 01:07:48;;;;;;;21.52;9.82;;;;;;;12.42;100.00;163812.22;5030693;28;20021;-64
2023/06/07 01:10:14;;;;;;;14.05;8.32;;;;;;;12.44;100.00;163816.25;5029381;28;20088;-64
2023/06/07 01:12:43;;;;;;;28.75;9.60;;;;;;;12.41;100.00;163808.13;5030976;28;20029;-65
2023/06/07 01:15:10;;;;;;;23.80;10.35;;;;;;;12.37;100.00;163798.66;5029487;28;20041;-65
2023/06/07 01:17:40;;;;;;;19.70;8.50;;;;;;;12.31;100.00;163783.84;5029898;28;20026;-64
2023/06/07 01:20:13;;;;;;;29.50;15.35;;;;;;;12.30;100.00;163779.75;5029456;28;20099;-65
2023/06/07 01:22:42;;;;;;;16.45;9.48;;;;;;;12.28;100.00;163774.38;5030627;28;20478;-64
2023/06/07 01:25:08;;;;;;;16.75;9.43;;;;;;;12.15;100.00;163740.59;5028927;28;20037;-65
2023/06/07 01:27:37;;;;;;;20.63;11.23;;;;;;;12.13;100.00;163735.16;5030948;28;20460;-64
2023/06/07 01:30:03;;;;;;;15.13;7.90;;;;;;;12.08;100.00;163723.00;5029379;28;20052;-64
2023/06/07 01:32:30;;;;;;;12.73;7.95;;;;;;;12.05;100.00;163716.25;5030679;28;20481;-63
2023/06/07 01:34:56;;;;;;;18.08;9.63;;;;;;;12.00;100.00;163702.75;5029044;28;20879;-64
2023/06/07 01:37:22;;;;;;;20.23;10.27;;;;;;;11.97;100.00;163694.63;5030638;28;20469;-64
2023/06/07 01:39:50;;;;;;;16.45;11.77;;;;;;;11.95;100.00;163689.16;5028550;28;20045;-64
2023/06/07 01:42:17;;;;;;;15.50;9.05;;;;;;;11.93;100.00;163682.41;5030885;28;20045;-64
2023/06/07 01:44:45;;;;;;;19.50;11.52;;;;;;;11.91;100.00;163678.38;5029592;28;20041;-63
2023/06/07 01:47:12;;;;;;;16.10;9.93;;;;;;;11.89;100.00;163672.97;5034535;28;20104;-64
2023/06/07 01:49:38;;;;;;;21.50;12.55;;;;;;;11.88;100.00;163670.25;5033092;28;20065;-63
2023/06/07 01:52:04;;;;;;;11.80;8.15;;;;;;;11.86;100.00;163664.91;5034483;28;20214;-64
2023/06/07 01:54:29;;;;;;;17.20;9.85;;;;;;;11.81;100.00;163651.34;5033009;28;20522;-64
2023/06/07 01:57:15;;;;;;;12.18;10.13;;;;;;;11.83;100.00;163656.75;5034575;28;20021;-63
2023/06/07 02:00:25;;;;;;;17.10;8.23;;;;;;;11.80;100.00;163648.69;5032997;28;20064;-63
2023/06/07 02:02:58;;;;;;;13.10;8.70;;;;;;;11.79;100.00;163645.97;5011675;28;20054;-64
2023/06/07 02:05:35;;;;;;;21.92;8.48;;;;;;;11.78;100.00;163643.28;5029271;28;20052;-63
2023/06/07 02:08:07;;;;;;;25.08;9.20;;;;;;;11.71;100.00;163627.06;5034219;28;20025;-63
2023/06/07 02:10:33;;;;;;;28.13;11.30;;;;;;;11.70;100.00;163624.38;5032755;28;20049;-64
2023/06/07 02:13:00;;;;;;;13.95;8.45;;;;;;;11.70;100.00;163624.38;5034201;28;20025;-65
2023/06/07 02:15:25;;;;;;;22.35;9.23;;;;;;;11.75;100.00;163637.84;5032805;28;20195;-65
2023/06/07 02:18:01;;;;;;;25.67;9.32;;;;;;;11.75;100.00;163637.84;5033621;28;20556;-65
2023/06/07 02:20:33;;;;;;;15.55;9.23;;;;;;;11.73;100.00;163632.44;5032753;28;20037;-65
2023/06/07 02:22:58;;;;;;;15.98;9.07;;;;;;;11.66;100.00;163613.53;5034115;28;20037;-65
2023/06/07 02:25:24;;;;;;;23.08;10.38;;;;;;;11.72;100.00;163629.78;5032347;28;20037;-66
2023/06/07 02:27:50;;;;;;;18.25;10.88;;;;;;;11.68;100.00;163617.63;5034089;28;20112;-66
2023/06/07 02:30:15;;;;;;;19.40;9.48;;;;;;;11.66;100.00;163612.19;5032651;28;20037;-66
2023/06/07 02:32:41;;;;;;;18.70;9.80;;;;;;;11.67;100.00;163616.22;5033425;28;20030;-66
2023/06/07 02:35:08;;;;;;;16.35;9.27;;;;;;;11.61;100.00;163600.03;5032438;28;20107;-66
2023/06/07 02:37:33;;;;;;;19.08;9.75;;;;;;;11.63;100.00;163605.47;5033966;28;20486;-65
2023/06/07 02:39:59;;;;;;;21.65;12.85;;;;;;;11.66;100.00;163613.53;5031742;28;20113;-65
2023/06/07 02:42:24;;;;;;;22.38;9.18;;;;;;;11.69;100.00;163620.31;5032637;28;20380;-65
2023/06/07 02:44:49;;;;;;;11.90;9.18;;;;;;;11.68;100.00;163617.63;5032202;28;20029;-64
2023/06/07 02:47:15;;;;;;;14.10;7.93;;;;;;;11.61;100.00;163600.03;5033292;28;20033;-64
2023/06/07 02:49:41;;;;;;;27.42;9.82;;;;;;;11.61;100.00;163598.72;5031793;28;20068;-65
2023/06/07 02:52:07;;;;;;;17.40;11.45;;;;;;;11.53;100.00;163578.41;5033984;28;20025;-65
2023/06/07 02:54:34;;;;;;;16.55;8.50;;;;;;;11.45;100.00;163558.19;5031772;28;20045;-65
2023/06/07 02:57:00;;;;;;;16.27;10.20;;;;;;;11.42;100.00;163551.44;5033579;28;20014;-65
2023/06/07 02:59:26;;;;;;;23.50;9.50;;;;;;;11.38;100.00;163539.28;5032022;28;20045;-65
2023/06/07 03:01:52;;;;;;;24.27;9.25;;;;;;;11.40;100.00;163546.03;5032814;28;20121;-64
2023/06/07 03:04:18;;;;;;;22.13;11.45;;;;;;;11.40;100.00;163544.66;5031345;28;20045;-65
2023/06/07 03:06:47;;;;;;;22.00;10.52;;;;;;;11.37;100.00;163536.56;5033459;28;20025;-65
2023/06/07 03:09:14;;;;;;;20.33;10.48;;;;;;;11.29;100.00;163516.28;5031480;28;20562;-65
2023/06/07 03:11:40;;;;;;;18.13;9.38;;;;;;;11.29;100.00;163516.28;5033321;28;20101;-65
2023/06/07 03:14:05;;;;;;;23.83;12.23;;;;;;;11.27;100.00;163512.25;5032079;28;20053;-64
2023/06/07 03:16:32;;;;;;;16.45;8.25;;;;;;;11.27;100.00;163512.25;5032839;28;20021;-63
2023/06/07 03:18:57;;;;;;;23.77;11.88;;;;;;;11.31;100.00;163521.72;5031165;28;20060;-62
2023/06/07 03:21:22;;;;;;;18.98;10.52;;;;;;;11.25;100.00;163505.50;5032844;28;20064;-62
2023/06/07 03:23:48;;;;;;;25.13;10.48;;;;;;;11.24;100.00;163504.13;5030870;28;20041;-63
2023/06/07 03:26:14;;;;;;;17.75;11.02;;;;;;;11.27;100.00;163510.94;5033055;28;20056;-63
2023/06/07 03:28:39;;;;;;;13.88;9.90;;;;;;;11.26;100.00;163508.22;5031625;28;20046;-63
2023/06/07 03:31:04;;;;;;;19.23;10.20;;;;;;;11.21;100.00;163494.69;5032435;28;20026;-63
2023/06/07 03:33:30;;;;;;;22.55;12.15;;;;;;;11.18;100.00;163486.59;5031559;28;20042;-63
2023/06/07 03:35:56;;;;;;;18.88;12.05;;;;;;;11.17;100.00;163483.91;5032359;28;20029;-63
2023/06/07 03:38:21;;;;;;;18.98;11.57;;;;;;;11.16;100.00;163481.19;5031063;28;20032;-63
2023/06/07 03:40:47;;;;;;;17.33;12.95;;;;;;;11.20;100.00;163492.03;5032666;28;20029;-64
2023/06/07 03:43:12;;;;;;;26.02;13.88;;;;;;;11.25;100.00;163505.50;5031302;28;20029;-63
2023/06/07 03:45:37;;;;;;;27.08;14.20;;;;;;;11.25;100.00;163505.50;5032081;28;20025;-63
2023/06/07 03:48:03;;;;;;;36.80;17.00;;;;;;;11.26;100.00;163508.22;5032850;28;20400;-65
2023/06/07 03:50:28;;;;;;;23.15;12.57;;;;;;;11.29;100.00;163514.97;5031221;28;20428;-65
2023/06/07 03:52:54;;;;;;;22.90;12.48;;;;;;;11.34;100.00;163529.84;5031666;28;20024;-65
2023/06/07 03:55:19;;;;;;;20.95;12.38;;;;;;;11.38;100.00;163540.63;5031102;28;20103;-65
2023/06/07 03:57:46;;;;;;;16.80;11.20;;;;;;;11.36;100.00;163535.19;5032170;28;20026;-66
2023/06/07 04:00:14;;;;;;;18.77;11.90;;;;;;;11.40;100.00;163544.66;5030726;28;20125;-65
2023/06/07 04:02:41;;;;;;;23.70;11.93;;;;;;;11.46;100.00;163559.50;5031944;28;20564;-65
2023/06/07 04:05:06;;;;;;;26.98;13.20;;;;;;;11.50;100.00;163570.34;5030474;28;20103;-65
2023/06/07 04:07:32;;;;;;;22.45;13.13;;;;;;;11.52;100.00;163575.72;5031370;28;20116;-66
2023/06/07 04:09:57;;;;;;;17.27;10.02;;;;;;;11.42;100.00;163551.44;5030409;28;20042;-65
2023/06/07 04:12:22;;;;;;;22.08;12.40;;;;;;;11.45;100.00;163556.81;5031760;28;20029;-67
2023/06/07 04:14:48;;;;;;;18.65;10.75;;;;;;;11.43;100.00;163554.09;5030000;28;20049;-66
2023/06/07 04:17:13;;;;;;;18.15;13.23;;;;;;;11.41;100.00;163548.75;5031626;28;20028;-66
2023/06/07 04:19:39;;;;;;;18.70;11.88;;;;;;;11.44;100.00;163555.47;5029614;28;20041;-66
2023/06/07 04:22:04;;;;;;;25.00;10.77;;;;;;;11.45;100.00;163556.81;5029555;28;20036;-65
2023/06/07 04:24:31;;;;;;;18.92;10.43;;;;;;;11.42;100.00;163551.44;5010910;28;20042;-65
2023/06/07 04:26:57;;;;;;;31.23;12.20;;;;;;;11.46;100.00;163559.50;5018448;28;20372;-65
2023/06/07 04:29:25;;;;;;;22.35;13.32;;;;;;;11.37;100.00;163537.91;5030491;28;20041;-65
2023/06/07 04:31:52;;;;;;;19.23;9.52;;;;;;;11.30;100.00;163517.66;5030773;28;20075;-65
2023/06/07 04:34:21;;;;;;;25.30;11.88;;;;;;;11.37;100.00;163536.56;5030317;28;20030;-65
2023/06/07 04:36:49;;;;;;;20.23;10.15;;;;;;;11.36;100.00;163535.19;5030646;28;20111;-65
2023/06/07 04:39:14;;;;;;;31.25;13.50;;;;;;;11.39;100.00;163543.31;5029885;28;20044;-65
2023/06/07 04:41:40;;;;;;;21.80;12.18;;;;;;;11.39;100.00;163543.31;5030950;28;20025;-64
2023/06/07 04:44:05;;;;;;;24.92;13.10;;;;;;;11.36;100.00;163533.88;5030068;28;20103;-64
2023/06/07 04:46:30;;;;;;;25.23;12.70;;;;;;;11.40;100.00;163544.66;5031096;28;20048;-66
2023/06/07 04:48:57;;;;;;;23.67;10.93;;;;;;;11.34;100.00;163529.84;5029709;28;20041;-65
2023/06/07 04:51:25;;;;;;;27.77;12.07;;;;;;;11.33;100.00;163527.13;5031326;28;20061;-65
2023/06/07 04:53:53;;;;;;;25.33;14.30;;;;;;;11.37;100.00;163537.91;5029769;28;20416;-65
2023/06/07 04:56:18;;;;;;;20.80;11.60;;;;;;;11.42;100.00;163551.44;5031428;28;20029;-65
2023/06/07 04:58:43;;;;;;;35.88;14.20;;;;;;;11.46;100.00;163559.50;5029780;28;20407;-64
2023/06/07 05:01:10;;;;;;;21.65;11.60;;;;;;;11.51;100.00;163573.00;5030906;28;20079;-68
2023/06/07 05:03:38;;;;;;;20.70;11.18;;;;;;;11.49;100.00;163568.97;5029510;28;20618;-68
2023/06/07 05:06:04;;;;;;;21.52;11.48;;;;;;;11.47;100.00;163563.56;5031430;28;20022;-67
2023/06/07 05:08:30;;;;;;;14.25;11.45;;;;;;;11.55;100.00;163583.84;5029383;28;20083;-67
2023/06/07 05:10:55;;;;;;;25.75;12.90;;;;;;;11.54;100.00;163581.13;5030889;28;20033;-68
2023/06/07 05:13:21;;;;;;;21.63;11.68;;;;;;;11.65;100.00;163610.88;5029892;28;20033;-67
2023/06/07 05:15:50;;;;;;;26.48;12.27;;;;;;;11.71;100.00;163627.06;5030081;28;20032;-67
2023/06/07 05:18:18;;;;;;;22.17;12.15;;;;;;;11.70;100.00;163624.38;5029860;28;20045;-66
2023/06/07 05:20:43;;;;;;;26.10;14.38;;;;;;;11.67;100.00;163616.22;5030242;28;20021;-68
2023/06/07 05:23:09;;;;;;;20.20;11.77;;;;;;;11.73;100.00;163631.09;5030570;28;20084;-66
2023/06/07 05:25:34;;;;;;;31.38;11.27;;;;;;;11.79;100.00;163647.31;5029566;28;20041;-63
2023/06/07 05:27:59;;;;;;;35.20;14.05;;;;;;;11.86;100.00;163666.22;5030946;28;20026;-61
2023/06/07 05:30:25;;;;;;;20.98;12.90;;;;;;;11.97;100.00;163694.63;5028903;28;20045;-64
2023/06/07 05:32:51;;;;;;;19.05;10.48;;;;;;;12.11;100.00;163729.75;5030728;28;20389;-64
2023/06/07 05:35:17;;;;;;;20.98;9.57;;;;;;;12.18;100.00;163748.66;5029303;28;20404;-64
2023/06/07 05:37:42;;;;;;;21.10;10.55;;;;;;;12.35;100.00;163794.63;5030409;28;20025;-63
2023/06/07 05:40:08;;;;;;;20.75;10.13;;;;;;;12.40;100.00;163805.47;5029516;28;20042;-64
2023/06/07 05:42:38;;;;;;;21.58;10.48;;;;;;;12.43;100.00;163813.53;5030889;28;20024;-64
2023/06/07 05:45:06;;;;;;;17.30;10.63;;;;;;;12.32;100.00;163786.50;5028807;28;20080;-64
2023/06/07 05:47:32;;;;;;;24.65;13.32;;;;;;;12.33;100.00;163789.22;5030829;28;20030;-64
2023/06/07 05:49:57;;;;;;;17.52;10.02;;;;;;;12.47;100.00;163824.38;5028898;28;20106;-64
2023/06/07 05:52:22;;;;;;;26.33;9.63;;;;;;;12.44;100.00;163816.25;5030369;28;20021;-64
2023/06/07 05:54:50;;;;;;;22.02;11.38;;;;;;;12.41;100.00;163808.13;5028989;28;20042;-64
2023/06/07 05:57:15;;;;;;;18.55;11.60;;;;;;;12.40;100.00;163805.47;5030915;28;20045;-64
2023/06/07 05:59:41;;;;;;;29.90;12.95;;;;;;;12.31;100.00;163783.84;5028086;28;20123;-64
2023/06/07 06:02:07;;;;;;;18.67;13.32;;;;;;;12.41;100.00;163808.13;5030573;28;20056;-64
2023/06/07 06:04:32;;;;;;;20.05;10.93;;;;;;;12.41;100.00;163809.50;5029207;28;20048;-64
2023/06/07 06:06:58;;;;;;;32.78;10.68;;;;;;;12.59;100.00;163855.41;5030014;28;20041;-65
2023/06/07 06:09:23;;;;;;;19.35;10.40;;;;;;;12.78;100.00;163905.44;5028204;28;20045;-65
2023/06/07 06:11:49;;;;;;;30.70;11.63;;;;;;;12.95;100.00;163951.41;5029639;28;20022;-65
2023/06/07 06:14:14;;;;;;;26.63;11.32;;;;;;;12.96;100.00;163952.72;5027058;28;20037;-65
2023/06/07 06:16:40;;;;;;;21.27;10.82;;;;;;;13.07;100.00;163981.16;5029685;28;20032;-65
2023/06/07 06:19:05;;;;;;;25.42;11.45;;;;;;;13.12;100.00;163994.66;5028500;28;20033;-65
2023/06/07 06:21:30;;;;;;;20.58;8.82;;;;;;;12.96;100.00;163952.72;5029373;28;20392;-65
2023/06/07 06:23:56;;;;;;;19.90;10.85;;;;;;;12.74;100.00;163895.97;5028898;28;20041;-63
2023/06/07 06:26:22;;;;;;;17.88;10.40;;;;;;;12.61;100.00;163862.22;5030464;28;20029;-61
2023/06/07 06:28:48;;;;;;;24.27;10.35;;;;;;;12.40;100.00;163806.78;5024173;28;20052;-60
2023/06/07 06:31:13;;;;;;;17.65;10.27;;;;;;;12.47;100.00;163824.38;5031540;28;20017;-61
2023/06/07 06:33:38;;;;;;;23.98;11.20;;;;;;;12.47;100.00;163824.38;5032295;28;20049;-60
2023/06/07 06:36:04;;;;;;;19.17;11.57;;;;;;;12.50;100.00;163832.47;5033511;28;20025;-60
2023/06/07 06:38:29;;;;;;;20.25;11.63;;;;;;;12.42;100.00;163812.22;5032332;28;20055;-60
2023/06/07 06:40:55;;;;;;;26.13;12.85;;;;;;;12.48;100.00;163827.03;5033663;28;20033;-60
2023/06/07 06:43:20;;;;;;;20.88;9.68;;;;;;;12.52;100.00;163837.88;5031859;28;20025;-60
2023/06/07 06:45:46;;;;;;;23.48;10.38;;;;;;;12.56;100.00;163847.34;5033392;28;20029;-60
2023/06/07 06:48:12;;;;;;;17.90;10.38;;;;;;;12.92;100.00;163943.28;5032500;28;20025;-58
2023/06/07 06:50:37;;;;;;;25.88;10.85;;;;;;;13.30;100.00;164043.31;5033090;28;20025;-60
2023/06/07 06:53:02;;;;;;;19.52;8.43;;;;;;;13.55;100.00;164108.28;5032572;28;20036;-60
2023/06/07 06:55:29;;;;;;;32.42;12.60;;;;;;;13.58;100.00;164116.41;5031506;28;20492;-60
2023/06/07 06:57:54;;;;;;;19.50;9.02;;;;;;;13.86;100.00;164189.44;5033349;28;20067;-60
2023/06/07 07:00:20;;;;;;;17.92;10.00;;;;;;;13.78;100.00;164167.78;5032053;28;20497;-60
2023/06/07 07:02:45;;;;;;;27.90;9.35;;;;;;;13.69;100.00;164144.81;5033203;28;20077;-60
2023/06/07 07:05:11;;;;;;;14.77;9.68;;;;;;;13.48;100.00;164089.34;5031662;28;20042;-60
2023/06/07 07:07:37;;;;;;;20.80;9.65;;;;;;;13.33;100.00;164051.44;5033022;28;20036;-60
2023/06/07 07:10:03;;;;;;;14.63;8.82;;;;;;;13.72;100.00;164151.56;5031869;28;20072;-60
2023/06/07 07:12:29;;;;;;;14.70;7.93;;;;;;;13.92;100.00;164204.34;5033423;28;20125;-60
2023/06/07 07:14:54;;;;;;;19.10;9.48;;;;;;;13.82;100.00;164177.25;5030689;28;20045;-62
2023/06/07 07:17:20;;;;;;;19.52;10.07;;;;;;;13.64;100.00;164132.63;5033511;28;20386;-63
2023/06/07 07:19:45;;;;;;;15.65;9.65;;;;;;;13.80;100.00;164173.22;5031173;28;20048;-63
2023/06/07 07:22:11;;;;;;;15.98;8.43;;;;;;;13.84;100.00;164184.00;5033124;28;20025;-63
2023/06/07 07:24:36;;;;;;;28.08;11.45;;;;;;;13.78;100.00;164167.78;5031358;28;20037;-62
2023/06/07 07:27:02;;;;;;;10.57;8.45;;;;;;;13.61;100.00;164123.19;5033134;28;20075;-63
2023/06/07 07:29:27;;;;;;;23.45;10.20;;;;;;;13.58;100.00;164115.03;5031722;28;20146;-63
2023/06/07 07:31:53;;;;;;;15.02;9.45;;;;;;;13.54;100.00;164104.25;5032980;28;20025;-63
2023/06/07 07:34:18;;;;;;;23.52;10.93;;;;;;;13.50;100.00;164094.78;5031760;28;20045;-63
2023/06/07 07:36:44;;;;;;;18.42;9.68;;;;;;;13.49;100.00;164093.41;5032264;28;20025;-63
2023/06/07 07:39:15;;;;;;;25.55;10.43;;;;;;;13.42;100.00;164073.13;5031204;28;20076;-63
2023/06/07 07:41:41;;;;;;;14.15;8.50;;;;;;;13.36;100.00;164056.88;5032897;28;20021;-63
2023/06/07 07:44:06;;;;;;;22.30;9.82;;;;;;;13.50;100.00;164094.78;5030126;28;20038;-63
2023/06/07 07:46:31;;;;;;;20.70;9.30;;;;;;;13.50;100.00;164094.78;5032392;28;20021;-63
2023/06/07 07:48:57;;;;;;;27.17;9.15;;;;;;;13.59;100.00;164117.75;5031120;28;20095;-63
2023/06/07 07:51:22;;;;;;;19.15;7.95;;;;;;;13.57;100.00;164113.72;5032514;28;20029;-63
2023/06/07 07:53:47;;;;;;;12.68;8.25;;;;;;;13.60;100.00;164121.78;5030817;28;20041;-63
2023/06/07 07:56:13;;;;;;;19.85;9.85;;;;;;;13.77;100.00;164165.06;5032245;28;20028;-63
2023/06/07 07:58:38;;;;;;;15.10;8.57;;;;;;;13.80;100.00;164173.22;5030824;28;20087;-63
2023/06/07 08:01:04;;;;;;;32.05;11.63;;;;;;;13.77;100.00;164165.06;5032791;28;20017;-63
2023/06/07 08:03:30;;;;;;;27.20;10.82;;;;;;;13.92;100.00;164205.66;5030845;28;20049;-63
2023/06/07 08:05:55;;;;;;;14.50;8.43;;;;;;;14.17;100.00;164269.22;5031773;28;20029;-64
2023/06/07 08:08:21;;;;;;;18.52;8.60;;;;;;;14.49;100.00;164354.44;5031012;28;20021;-63
2023/06/07 08:10:47;;;;;;;23.95;8.55;;;;;;;14.47;100.00;164347.69;5032345;28;20025;-63
2023/06/07 08:13:13;;;;;;;15.50;8.25;;;;;;;14.69;100.00;164407.28;5030387;28;20021;-61
2023/06/07 08:15:39;;;;;;;24.63;9.55;;;;;;;14.74;100.00;164419.47;5032187;28;20199;-63
2023/06/07 08:18:04;;;;;;;18.27;9.13;;;;;;;14.72;100.00;164415.41;5032333;28;20456;-63
2023/06/07 08:20:30;;;;;;;18.85;9.93;;;;;;;14.65;100.00;164395.03;5030359;28;20099;-63
2023/06/07 08:22:55;;;;;;;20.77;11.45;;;;;;;14.69;100.00;164407.28;5031765;28;20299;-63
2023/06/07 08:25:21;;;;;;;17.42;9.05;;;;;;;14.76;100.00;164424.88;5030458;28;20041;-63
2023/06/07 08:27:46;;;;;;;21.27;10.25;;;;;;;14.76;100.00;164424.88;5031421;28;20029;-63
2023/06/07 08:30:12;;;;;;;19.08;7.32;;;;;;;14.69;100.00;164405.94;5030473;28;20037;-63
2023/06/07 08:32:38;;;;;;;17.42;6.93;;;;;;;15.05;100.00;164502.00;5032088;28;20029;-64
2023/06/07 08:35:03;;;;;;;14.77;7.70;;;;;;;15.02;100.00;164492.53;5029894;28;20045;-64
2023/06/07 08:37:29;;;;;;;13.30;7.63;;;;;;;15.15;100.00;164527.72;5031496;28;20314;-63
2023/06/07 08:39:54;;;;;;;14.30;9.85;;;;;;;15.17;100.00;164533.13;5030865;28;20037;-63
2023/06/07 08:42:19;;;;;;;27.85;9.60;;;;;;;15.08;100.00;164508.75;5031566;28;20534;-63
2023/06/07 08:44:45;;;;;;;18.70;8.27;;;;;;;15.34;100.00;164577.78;5030053;28;20044;-63
2023/06/07 08:47:12;;;;;;;13.82;7.28;;;;;;;15.33;100.00;164575.13;5031836;28;20036;-63
2023/06/07 08:49:39;;;;;;;13.90;8.00;;;;;;;15.55;100.00;164633.31;5029604;28;20715;-63
2023/06/07 08:52:08;;;;;;;16.27;7.05;;;;;;;15.76;100.00;164687.47;5031401;28;20026;-63
2023/06/07 08:54:40;;;;;;;18.20;9.38;;;;;;;15.91;100.00;164725.41;5029702;28;20577;-63
2023/06/07 08:57:05;;;;;;;16.40;7.57;;;;;;;16.13;100.00;164783.66;5031023;28;20026;-64
2023/06/07 08:59:31;;;;;;;19.55;9.55;;;;;;;16.41;100.00;164856.78;5029843;28;20095;-63
2023/06/07 09:01:56;;;;;;;14.25;7.72;;;;;;;16.67;100.00;164924.53;5030970;28;20043;-64
2023/06/07 09:04:22;;;;;;;11.93;8.43;;;;;;;16.84;100.00;164969.25;5029683;28;20049;-64
2023/06/07 09:06:47;;;;;;;16.80;8.52;;;;;;;16.90;100.00;164985.50;5027405;28;20026;-63
2023/06/07 09:09:13;;;;;;;14.02;7.65;;;;;;;17.02;100.00;165018.03;5029009;28;20041;-63
2023/06/07 09:11:38;;;;;;;21.45;9.57;;;;;;;17.38;100.00;165112.94;5030364;28;20090;-63
2023/06/07 09:14:04;;;;;;;14.32;7.88;;;;;;;17.42;100.00;165123.75;5029765;28;20034;-63
2023/06/07 09:16:29;;;;;;;18.35;9.13;;;;;;;17.50;100.00;165142.72;5031142;28;20447;-65
2023/06/07 09:18:55;;;;;;;16.38;6.93;;;;;;;17.54;100.00;165153.56;5029184;28;20577;-63
2023/06/07 09:21:26;;;;;;;10.15;7.55;;;;;;;17.51;100.00;165145.44;5031112;28;20385;-63
2023/06/07 09:23:52;;;;;;;16.65;8.00;;;;;;;17.50;100.00;165144.06;5029602;28;20081;-62
2023/06/07 09:26:19;;;;;;;17.70;9.77;;;;;;;17.30;100.00;165091.25;5026095;28;20034;-63
2023/06/07 09:28:46;;;;;;;14.07;8.80;;;;;;;17.66;100.00;165186.13;5009628;28;20034;-63
2023/06/07 09:31:12;;;;;;;16.42;9.02;;;;;;;17.94;100.00;165259.31;5018694;28;20037;-63
2023/06/07 09:33:38;;;;;;;13.75;7.78;;;;;;;18.33;100.00;165362.41;5028844;28;20095;-63
2023/06/07 09:36:05;;;;;;;16.48;8.75;;;;;;;18.53;100.00;165413.91;5030783;28;20105;-63
2023/06/07 09:38:30;;;;;;;13.50;8.13;;;;;;;18.34;100.00;165365.13;5029556;28;20080;-63
2023/06/07 09:40:58;;;;;;;15.43;9.10;;;;;;;18.23;100.00;165336.66;5030069;28;20027;-63
2023/06/07 09:43:24;;;;;;;13.35;7.55;;;;;;;18.37;100.00;165371.91;5029501;28;20029;-63
2023/06/07 09:45:54;;;;;;;17.10;9.05;;;;;;;18.47;100.00;165397.66;5030208;28;20489;-64
2023/06/07 09:48:19;;;;;;;12.85;6.97;;;;;;;18.34;100.00;165365.13;5028875;28;20065;-63
2023/06/07 09:50:57;;;;;;;15.27;8.32;;;;;;;18.16;100.00;165316.28;5030565;28;20075;-63
2023/06/07 09:53:24;;;;;;;16.63;10.75;;;;;;;18.19;100.00;165324.44;5029456;28;20112;-63
2023/06/07 09:55:49;;;;;;;16.38;9.15;;;;;;;18.20;100.00;165327.16;5030019;28;20033;-64
2023/06/07 09:58:19;;;;;;;17.42;8.35;;;;;;;18.41;100.00;165381.38;5028196;28;20033;-63
2023/06/07 10:00:45;;;;;;;26.48;9.65;;;;;;;18.41;100.00;165381.38;5030011;28;20025;-63
2023/06/07 10:03:12;;;;;;;15.50;7.93;;;;;;;18.37;100.00;165373.22;5028607;28;20041;-63
2023/06/07 10:05:38;;;;;;;16.23;7.53;;;;;;;18.60;100.00;165432.91;5030683;28;20022;-64
2023/06/07 10:08:05;;;;;;;17.15;9.13;;;;;;;18.86;100.00;165500.72;5034745;28;20036;-64
2023/06/07 10:10:32;;;;;;;20.17;9.02;;;;;;;18.86;100.00;165500.72;5032676;28;20125;-63
2023/06/07 10:12:59;;;;;;;20.07;8.47;;;;;;;19.06;100.00;165552.31;5034256;28;20814;-63
2023/06/07 10:15:25;;;;;;;14.27;6.53;;;;;;;18.98;100.00;165533.31;5032720;28;21077;-64
2023/06/07 10:18:03;;;;;;;21.80;10.98;;;;;;;18.90;100.00;165511.56;5033267;28;20109;-63
2023/06/07 10:20:30;;;;;;;;;;;;;;;19.01;100.00;165541.47;5033059;28;20560;-64
2023/06/07 10:23:03;;;;;;;14.15;6.65;;;;;;;19.28;100.00;165610.66;5034131;28;19913;-64
2023/06/07 10:25:34;;;;;;;11.60;6.57;;;;;;;19.47;100.00;165660.88;5032578;28;20042;-63
2023/06/07 10:28:14;;;;;;;11.48;6.32;;;;;;;19.34;100.00;165628.28;5032567;28;20029;-63
2023/06/07 10:30:44;;;;;;;16.48;7.75;;;;;;;19.48;100.00;165663.53;5012345;28;20072;-63
2023/06/07 10:33:10;;;;;;;15.75;8.50;;;;;;;19.70;100.00;165721.91;5012192;28;20026;-62
2023/06/07 10:35:39;;;;;;;17.45;7.18;;;;;;;19.53;100.00;165677.13;4994643;28;20027;-63
2023/06/07 10:38:04;;;;;;;14.23;6.88;;;;;;;19.70;100.00;165720.53;5013332;28;20022;-63
2023/06/07 10:40:31;;;;;;;14.10;6.35;;;;;;;19.89;100.00;165772.16;5011931;28;20045;-63
2023/06/07 10:42:57;;;;;;;12.57;6.63;;;;;;;20.11;100.00;165829.16;5013773;28;20030;-63
2023/06/07 10:45:23;;;;;;;12.85;5.85;;;;;;;20.36;100.00;165895.66;5012071;28;20527;-63
2023/06/07 10:47:48;;;;;;;14.65;6.53;;;;;;;20.66;100.00;165973.06;5013489;28;20030;-64
2023/06/07 10:50:26;;;;;;;14.82;6.20;;;;;;;21.00;100.00;166062.72;5012622;28;20061;-63
2023/06/07 10:52:56;;;;;;;11.52;6.20;;;;;;;21.01;100.00;166065.44;5013839;28;20037;-64
2023/06/07 10:55:31;;;;;;;18.20;6.70;;;;;;;21.24;100.00;166127.91;5012040;28;20053;-63
2023/06/07 10:57:56;;;;;;;14.30;6.00;;;;;;;21.48;100.00;166190.34;5013949;28;20026;-64
2023/06/07 11:00:30;;;;;;;13.73;6.63;;;;;;;21.72;100.00;166252.88;5012476;28;20520;-64
2023/06/07 11:03:16;;;;;;;9.65;5.63;;;;;;;21.66;100.00;166237.97;5013069;28;20056;-64
2023/06/07 11:05:53;;;;;;;13.07;7.28;;;;;;;21.32;100.00;166146.91;5031933;28;20049;-63